sensor_id;sensor_type;location;lat;lon;timestamp;temperature;humidity
29777;DHT22;16677;52.224;7.484;2023-01-29T00:00:20;1.90;99.90
29777;DHT22;16677;52.224;7.484;2023-01-29T00:02:47;1.90;99.90
29777;DHT22;16677;52.224;7.484;2023-01-29T00:05:14;1.90;99.90
29777;DHT22;16677;52.224;7.484;2023-01-29T00:07:54;1.90;99.90
29777;DHT22;16677;52.224;7.484;2023-01-29T00:10:21;2.00;99.90
29777;DHT22;16677;52.224;7.484;2023-01-29T00:12:48;1.90;99.90
29777;DHT22;16677;52.224;7.484;2023-01-29T00:15:14;1.90;99.90
29777;DHT22;16677;52.224;7.484;2023-01-29T00:17:41;1.90;99.90
29777;DHT22;16677;52.224;7.484;2023-01-29T00:20:08;1.80;99.90
29777;DHT22;16677;52.224;7.484;2023-01-29T00:22:35;1.90;99.90
29777;DHT22;16677;52.224;7.484;2023-01-29T00:25:02;1.80;99.90
29777;DHT22;16677;52.224;7.484;2023-01-29T00:27:29;1.90;99.90
29777;DHT22;16677;52.224;7.484;2023-01-29T00:29:56;2.00;99.90
29777;DHT22;16677;52.224;7.484;2023-01-29T00:32:48;1.90;99.90
29777;DHT22;16677;52.224;7.484;2023-01-29T00:35:15;1.80;99.90
29777;DHT22;16677;52.224;7.484;2023-01-29T00:37:42;1.80;99.90
29777;DHT22;16677;52.224;7.484;2023-01-29T00:40:09;1.90;99.90
29777;DHT22;16677;52.224;7.484;2023-01-29T00:42:36;1.90;99.90
29777;DHT22;16677;52.224;7.484;2023-01-29T00:45:22;1.90;99.90
29777;DHT22;16677;52.224;7.484;2023-01-29T00:47:49;2.00;99.90
29777;DHT22;16677;52.224;7.484;2023-01-29T00:50:15;2.10;99.90
29777;DHT22;16677;52.224;7.484;2023-01-29T00:52:43;2.10;99.90
29777;DHT22;16677;52.224;7.484;2023-01-29T00:55:10;2.00;99.90
29777;DHT22;16677;52.224;7.484;2023-01-29T00:57:37;2.10;99.90
29777;DHT22;16677;52.224;7.484;2023-01-29T01:00:04;2.20;99.90
29777;DHT22;16677;52.224;7.484;2023-01-29T01:02:31;2.10;99.90
29777;DHT22;16677;52.224;7.484;2023-01-29T01:05:17;2.00;99.90
29777;DHT22;16677;52.224;7.484;2023-01-29T01:07:48;1.90;99.90
29777;DHT22;16677;52.224;7.484;2023-01-29T01:10:16;1.90;99.90
29777;DHT22;16677;52.224;7.484;2023-01-29T01:12:53;1.90;99.90
29777;DHT22;16677;52.224;7.484;2023-01-29T01:15:22;1.90;99.90
29777;DHT22;16677;52.224;7.484;2023-01-29T01:17:50;1.90;99.90
29777;DHT22;16677;52.224;7.484;2023-01-29T01:20:17;2.00;99.90
29777;DHT22;16677;52.224;7.484;2023-01-29T01:22:45;1.90;99.90
29777;DHT22;16677;52.224;7.484;2023-01-29T01:25:11;1.90;99.90
29777;DHT22;16677;52.224;7.484;2023-01-29T01:27:38;1.90;99.90
29777;DHT22;16677;52.224;7.484;2023-01-29T01:30:07;2.00;99.90
29777;DHT22;16677;52.224;7.484;2023-01-29T01:32:34;2.00;99.90
29777;DHT22;16677;52.224;7.484;2023-01-29T01:35:01;1.90;99.90
29777;DHT22;16677;52.224;7.484;2023-01-29T01:37:28;1.80;99.90
29777;DHT22;16677;52.224;7.484;2023-01-29T01:39:55;1.80;99.90
29777;DHT22;16677;52.224;7.484;2023-01-29T01:42:29;1.80;99.90
29777;DHT22;16677;52.224;7.484;2023-01-29T01:47:28;1.90;99.90
29777;DHT22;16677;52.224;7.484;2023-01-29T01:49:56;1.90;99.90
29777;DHT22;16677;52.224;7.484;2023-01-29T01:52:24;1.90;99.90
29777;DHT22;16677;52.224;7.484;2023-01-29T01:54:51;1.90;99.90
29777;DHT22;16677;52.224;7.484;2023-01-29T01:57:20;1.90;99.90
29777;DHT22;16677;52.224;7.484;2023-01-29T01:59:52;2.00;99.90
29777;DHT22;16677;52.224;7.484;2023-01-29T02:02:20;2.00;99.90
29777;DHT22;16677;52.224;7.484;2023-01-29T02:05:05;2.00;99.90
29777;DHT22;16677;52.224;7.484;2023-01-29T02:07:51;2.00;99.90
29777;DHT22;16677;52.224;7.484;2023-01-29T02:10:44;1.90;99.90
29777;DHT22;16677;52.224;7.484;2023-01-29T02:13:11;2.00;99.90
29777;DHT22;16677;52.224;7.484;2023-01-29T02:15:38;1.90;99.90
29777;DHT22;16677;52.224;7.484;2023-01-29T02:18:07;2.00;99.90
29777;DHT22;16677;52.224;7.484;2023-01-29T02:20:34;2.00;99.90
29777;DHT22;16677;52.224;7.484;2023-01-29T02:28:28;2.10;99.90
29777;DHT22;16677;52.224;7.484;2023-01-29T02:38:58;2.10;99.90
29777;DHT22;16677;52.224;7.484;2023-01-29T02:41:29;2.10;99.90
29777;DHT22;16677;52.224;7.484;2023-01-29T02:44:18;2.10;99.90
29777;DHT22;16677;52.224;7.484;2023-01-29T02:46:56;2.20;99.90
29777;DHT22;16677;52.224;7.484;2023-01-29T02:52:01;2.20;99.90
29777;DHT22;16677;52.224;7.484;2023-01-29T02:57:18;2.30;99.90
29777;DHT22;16677;52.224;7.484;2023-01-29T02:59:48;2.20;99.90
29777;DHT22;16677;52.224;7.484;2023-01-29T03:02:17;2.30;99.90
29777;DHT22;16677;52.224;7.484;2023-01-29T03:04:50;2.30;99.90
29777;DHT22;16677;52.224;7.484;2023-01-29T03:07:21;2.20;99.90
29777;DHT22;16677;52.224;7.484;2023-01-29T03:10:20;2.20;99.90
29777;DHT22;16677;52.224;7.484;2023-01-29T03:12:53;2.20;99.90
29777;DHT22;16677;52.224;7.484;2023-01-29T03:15:22;2.20;99.90
29777;DHT22;16677;52.224;7.484;2023-01-29T03:17:53;2.10;99.90
29777;DHT22;16677;52.224;7.484;2023-01-29T03:20:22;2.10;99.90
29777;DHT22;16677;52.224;7.484;2023-01-29T03:22:56;2.10;99.90
29777;DHT22;16677;52.224;7.484;2023-01-29T03:25:23;2.10;99.90
29777;DHT22;16677;52.224;7.484;2023-01-29T03:28:10;2.10;99.90
29777;DHT22;16677;52.224;7.484;2023-01-29T03:30:57;2.10;99.90
29777;DHT22;16677;52.224;7.484;2023-01-29T03:33:51;2.10;99.90
29777;DHT22;16677;52.224;7.484;2023-01-29T03:36:21;2.20;99.90
29777;DHT22;16677;52.224;7.484;2023-01-29T03:38:49;2.30;99.90
29777;DHT22;16677;52.224;7.484;2023-01-29T03:43:54;2.30;99.90
29777;DHT22;16677;52.224;7.484;2023-01-29T03:46:34;2.40;99.90
29777;DHT22;16677;52.224;7.484;2023-01-29T03:51:35;2.30;99.90
29777;DHT22;16677;52.224;7.484;2023-01-29T03:56:43;2.10;99.90
29777;DHT22;16677;52.224;7.484;2023-01-29T04:01:52;2.20;99.90
29777;DHT22;16677;52.224;7.484;2023-01-29T04:04:23;2.20;99.90
29777;DHT22;16677;52.224;7.484;2023-01-29T04:06:53;2.10;99.90
29777;DHT22;16677;52.224;7.484;2023-01-29T04:09:24;2.10;99.90
29777;DHT22;16677;52.224;7.484;2023-01-29T04:11:56;2.10;99.90
29777;DHT22;16677;52.224;7.484;2023-01-29T04:14:25;2.10;99.90
29777;DHT22;16677;52.224;7.484;2023-01-29T04:19:26;2.20;99.90
29777;DHT22;16677;52.224;7.484;2023-01-29T04:21:58;2.20;99.90
29777;DHT22;16677;52.224;7.484;2023-01-29T04:24:27;2.20;99.90
29777;DHT22;16677;52.224;7.484;2023-01-29T04:34:27;2.00;99.90
29777;DHT22;16677;52.224;7.484;2023-01-29T04:37:05;2.00;99.90
29777;DHT22;16677;52.224;7.484;2023-01-29T04:42:12;2.00;99.90
29777;DHT22;16677;52.224;7.484;2023-01-29T04:44:49;2.00;99.90
29777;DHT22;16677;52.224;7.484;2023-01-29T04:50:17;1.90;99.90
29777;DHT22;16677;52.224;7.484;2023-01-29T04:55:42;1.90;99.90
29777;DHT22;16677;52.224;7.484;2023-01-29T05:00:56;2.00;99.90
29777;DHT22;16677;52.224;7.484;2023-01-29T05:03:24;2.00;99.90
29777;DHT22;16677;52.224;7.484;2023-01-29T05:05:51;2.00;99.90
29777;DHT22;16677;52.224;7.484;2023-01-29T05:08:20;2.00;99.90
29777;DHT22;16677;52.224;7.484;2023-01-29T05:10:47;2.00;99.90
29777;DHT22;16677;52.224;7.484;2023-01-29T05:13:14;2.00;99.90
29777;DHT22;16677;52.224;7.484;2023-01-29T05:15:46;2.00;99.90
29777;DHT22;16677;52.224;7.484;2023-01-29T05:18:14;2.00;99.90
29777;DHT22;16677;52.224;7.484;2023-01-29T05:20:42;1.90;99.90
29777;DHT22;16677;52.224;7.484;2023-01-29T05:23:09;1.90;99.90
29777;DHT22;16677;52.224;7.484;2023-01-29T05:25:40;1.90;99.90
29777;DHT22;16677;52.224;7.484;2023-01-29T05:28:08;1.90;99.90
29777;DHT22;16677;52.224;7.484;2023-01-29T05:30:43;2.00;99.90
29777;DHT22;16677;52.224;7.484;2023-01-29T05:33:12;2.10;99.90
29777;DHT22;16677;52.224;7.484;2023-01-29T05:35:39;2.10;99.90
29777;DHT22;16677;52.224;7.484;2023-01-29T05:38:06;2.20;99.90
29777;DHT22;16677;52.224;7.484;2023-01-29T05:40:33;2.10;99.90
29777;DHT22;16677;52.224;7.484;2023-01-29T05:43:00;2.10;99.90
29777;DHT22;16677;52.224;7.484;2023-01-29T05:45:27;2.00;99.90
29777;DHT22;16677;52.224;7.484;2023-01-29T05:47:57;2.00;99.90
29777;DHT22;16677;52.224;7.484;2023-01-29T05:50:26;2.00;99.90
29777;DHT22;16677;52.224;7.484;2023-01-29T05:52:57;1.90;99.90
29777;DHT22;16677;52.224;7.484;2023-01-29T05:55:23;2.00;99.90
29777;DHT22;16677;52.224;7.484;2023-01-29T05:57:50;1.90;99.90
29777;DHT22;16677;52.224;7.484;2023-01-29T06:00:17;1.90;99.90
29777;DHT22;16677;52.224;7.484;2023-01-29T06:02:44;1.80;99.90
29777;DHT22;16677;52.224;7.484;2023-01-29T06:05:11;1.80;99.90
29777;DHT22;16677;52.224;7.484;2023-01-29T06:07:38;1.90;99.90
29777;DHT22;16677;52.224;7.484;2023-01-29T06:10:14;1.90;99.90
29777;DHT22;16677;52.224;7.484;2023-01-29T06:12:41;1.90;99.90
29777;DHT22;16677;52.224;7.484;2023-01-29T06:15:09;1.90;99.90
29777;DHT22;16677;52.224;7.484;2023-01-29T06:17:36;2.00;99.90
29777;DHT22;16677;52.224;7.484;2023-01-29T06:20:03;1.90;99.90
29777;DHT22;16677;52.224;7.484;2023-01-29T06:22:30;1.90;99.90
29777;DHT22;16677;52.224;7.484;2023-01-29T06:24:58;1.80;99.90
29777;DHT22;16677;52.224;7.484;2023-01-29T06:27:24;1.80;99.90
29777;DHT22;16677;52.224;7.484;2023-01-29T06:29:51;1.80;99.90
29777;DHT22;16677;52.224;7.484;2023-01-29T06:32:18;1.90;99.90
29777;DHT22;16677;52.224;7.484;2023-01-29T06:34:45;1.90;99.90
29777;DHT22;16677;52.224;7.484;2023-01-29T06:37:15;1.90;99.90
29777;DHT22;16677;52.224;7.484;2023-01-29T06:39:41;1.80;99.90
29777;DHT22;16677;52.224;7.484;2023-01-29T06:42:08;1.80;99.90
29777;DHT22;16677;52.224;7.484;2023-01-29T06:44:36;1.80;99.90
29777;DHT22;16677;52.224;7.484;2023-01-29T06:47:03;1.90;99.90
29777;DHT22;16677;52.224;7.484;2023-01-29T06:49:30;1.90;99.90
29777;DHT22;16677;52.224;7.484;2023-01-29T06:51:56;1.90;99.90
29777;DHT22;16677;52.224;7.484;2023-01-29T06:54:23;1.90;99.90
29777;DHT22;16677;52.224;7.484;2023-01-29T06:56:50;1.90;99.90
29777;DHT22;16677;52.224;7.484;2023-01-29T06:59:17;1.90;99.90
29777;DHT22;16677;52.224;7.484;2023-01-29T07:01:44;1.80;99.90
29777;DHT22;16677;52.224;7.484;2023-01-29T07:04:11;1.80;99.90
29777;DHT22;16677;52.224;7.484;2023-01-29T07:06:38;1.90;99.90
29777;DHT22;16677;52.224;7.484;2023-01-29T07:09:04;1.80;99.90
29777;DHT22;16677;52.224;7.484;2023-01-29T07:11:32;1.90;99.90
29777;DHT22;16677;52.224;7.484;2023-01-29T07:13:59;2.00;99.90
29777;DHT22;16677;52.224;7.484;2023-01-29T07:16:26;1.90;99.90
29777;DHT22;16677;52.224;7.484;2023-01-29T07:18:53;2.00;99.90
29777;DHT22;16677;52.224;7.484;2023-01-29T07:21:20;1.80;99.90
29777;DHT22;16677;52.224;7.484;2023-01-29T07:23:46;1.90;99.90
29777;DHT22;16677;52.224;7.484;2023-01-29T07:26:13;1.90;99.90
29777;DHT22;16677;52.224;7.484;2023-01-29T07:28:40;1.80;99.90
29777;DHT22;16677;52.224;7.484;2023-01-29T07:31:07;1.90;99.90
29777;DHT22;16677;52.224;7.484;2023-01-29T07:33:36;2.00;99.90
29777;DHT22;16677;52.224;7.484;2023-01-29T07:36:06;1.90;99.90
29777;DHT22;16677;52.224;7.484;2023-01-29T07:38:33;1.90;99.90
29777;DHT22;16677;52.224;7.484;2023-01-29T07:41:00;1.90;99.90
29777;DHT22;16677;52.224;7.484;2023-01-29T07:43:28;1.90;99.90
29777;DHT22;16677;52.224;7.484;2023-01-29T07:45:55;1.80;99.90
29777;DHT22;16677;52.224;7.484;2023-01-29T07:48:26;1.80;99.90
29777;DHT22;16677;52.224;7.484;2023-01-29T07:50:53;1.80;99.90
29777;DHT22;16677;52.224;7.484;2023-01-29T07:53:20;1.90;99.90
29777;DHT22;16677;52.224;7.484;2023-01-29T07:55:47;1.80;99.90
29777;DHT22;16677;52.224;7.484;2023-01-29T07:58:14;1.90;99.90
29777;DHT22;16677;52.224;7.484;2023-01-29T08:00:41;1.80;99.90
29777;DHT22;16677;52.224;7.484;2023-01-29T08:03:11;1.80;99.90
29777;DHT22;16677;52.224;7.484;2023-01-29T08:05:38;1.90;99.90
29777;DHT22;16677;52.224;7.484;2023-01-29T08:08:05;1.90;99.90
29777;DHT22;16677;52.224;7.484;2023-01-29T08:10:34;1.90;99.90
29777;DHT22;16677;52.224;7.484;2023-01-29T08:13:01;1.90;99.90
29777;DHT22;16677;52.224;7.484;2023-01-29T08:15:29;1.90;99.90
29777;DHT22;16677;52.224;7.484;2023-01-29T08:17:56;1.90;99.90
29777;DHT22;16677;52.224;7.484;2023-01-29T08:20:43;1.90;99.90
29777;DHT22;16677;52.224;7.484;2023-01-29T08:23:13;1.90;99.90
29777;DHT22;16677;52.224;7.484;2023-01-29T08:25:40;2.00;99.90
29777;DHT22;16677;52.224;7.484;2023-01-29T08:28:07;2.00;99.90
29777;DHT22;16677;52.224;7.484;2023-01-29T08:30:35;2.00;99.90
29777;DHT22;16677;52.224;7.484;2023-01-29T08:33:02;2.00;99.90
29777;DHT22;16677;52.224;7.484;2023-01-29T08:35:29;2.20;99.90
29777;DHT22;16677;52.224;7.484;2023-01-29T08:37:57;2.20;99.90
29777;DHT22;16677;52.224;7.484;2023-01-29T08:40:27;2.30;99.90
29777;DHT22;16677;52.224;7.484;2023-01-29T08:43:01;2.30;99.90
29777;DHT22;16677;52.224;7.484;2023-01-29T08:45:29;2.30;99.90
29777;DHT22;16677;52.224;7.484;2023-01-29T08:47:56;2.20;99.90
29777;DHT22;16677;52.224;7.484;2023-01-29T08:50:23;2.20;99.90
29777;DHT22;16677;52.224;7.484;2023-01-29T08:52:49;2.30;99.90
29777;DHT22;16677;52.224;7.484;2023-01-29T08:55:16;2.40;99.90
29777;DHT22;16677;52.224;7.484;2023-01-29T08:57:43;2.30;99.90
29777;DHT22;16677;52.224;7.484;2023-01-29T09:00:10;2.30;99.90
29777;DHT22;16677;52.224;7.484;2023-01-29T09:02:37;2.30;99.90
29777;DHT22;16677;52.224;7.484;2023-01-29T09:05:04;2.40;99.90
29777;DHT22;16677;52.224;7.484;2023-01-29T09:07:31;2.40;99.90
29777;DHT22;16677;52.224;7.484;2023-01-29T09:09:58;2.40;99.90
29777;DHT22;16677;52.224;7.484;2023-01-29T09:12:25;2.40;99.90
29777;DHT22;16677;52.224;7.484;2023-01-29T09:14:52;2.30;99.90
29777;DHT22;16677;52.224;7.484;2023-01-29T09:17:19;2.30;99.90
29777;DHT22;16677;52.224;7.484;2023-01-29T09:19:45;2.30;99.90
29777;DHT22;16677;52.224;7.484;2023-01-29T09:22:12;2.30;99.90
29777;DHT22;16677;52.224;7.484;2023-01-29T09:24:39;2.30;99.90
29777;DHT22;16677;52.224;7.484;2023-01-29T09:27:06;2.30;99.90
29777;DHT22;16677;52.224;7.484;2023-01-29T09:29:32;2.30;99.90
29777;DHT22;16677;52.224;7.484;2023-01-29T09:32:02;2.40;99.90
29777;DHT22;16677;52.224;7.484;2023-01-29T09:34:29;2.50;99.90
29777;DHT22;16677;52.224;7.484;2023-01-29T09:36:56;2.50;99.90
29777;DHT22;16677;52.224;7.484;2023-01-29T09:39:22;2.50;99.90
29777;DHT22;16677;52.224;7.484;2023-01-29T09:41:52;2.50;99.90
29777;DHT22;16677;52.224;7.484;2023-01-29T09:47:10;2.60;99.90
29777;DHT22;16677;52.224;7.484;2023-01-29T09:49:40;2.60;99.90
29777;DHT22;16677;52.224;7.484;2023-01-29T09:52:13;2.80;99.90
29777;DHT22;16677;52.224;7.484;2023-01-29T09:54:47;2.80;99.90
29777;DHT22;16677;52.224;7.484;2023-01-29T09:57:19;2.90;99.90
29777;DHT22;16677;52.224;7.484;2023-01-29T09:59:47;2.80;99.90
29777;DHT22;16677;52.224;7.484;2023-01-29T10:07:51;3.00;99.90
29777;DHT22;16677;52.224;7.484;2023-01-29T10:15:45;3.00;99.90
29777;DHT22;16677;52.224;7.484;2023-01-29T10:23:33;3.00;99.90
29777;DHT22;16677;52.224;7.484;2023-01-29T10:26:01;3.00;99.90
29777;DHT22;16677;52.224;7.484;2023-01-29T10:28:30;3.00;99.90
29777;DHT22;16677;52.224;7.484;2023-01-29T10:31:17;3.00;99.90
29777;DHT22;16677;52.224;7.484;2023-01-29T10:33:57;3.00;99.90
29777;DHT22;16677;52.224;7.484;2023-01-29T10:36:39;3.10;99.90
29777;DHT22;16677;52.224;7.484;2023-01-29T10:39:14;3.00;99.90
29777;DHT22;16677;52.224;7.484;2023-01-29T10:55:02;3.30;99.90
29777;DHT22;16677;52.224;7.484;2023-01-29T11:00:07;3.10;99.90
29777;DHT22;16677;52.224;7.484;2023-01-29T11:02:44;3.20;99.90
29777;DHT22;16677;52.224;7.484;2023-01-29T11:08:02;3.30;99.90
29777;DHT22;16677;52.224;7.484;2023-01-29T11:10:31;3.20;99.90
29777;DHT22;16677;52.224;7.484;2023-01-29T11:12:59;3.10;99.90
29777;DHT22;16677;52.224;7.484;2023-01-29T11:15:30;3.20;99.90
29777;DHT22;16677;52.224;7.484;2023-01-29T11:18:05;3.20;99.90
29777;DHT22;16677;52.224;7.484;2023-01-29T11:20:33;3.10;99.90
29777;DHT22;16677;52.224;7.484;2023-01-29T11:22:59;3.10;99.90
29777;DHT22;16677;52.224;7.484;2023-01-29T11:25:26;3.10;99.90
29777;DHT22;16677;52.224;7.484;2023-01-29T11:27:56;3.10;99.90
29777;DHT22;16677;52.224;7.484;2023-01-29T11:30:24;3.10;99.90
29777;DHT22;16677;52.224;7.484;2023-01-29T11:32:56;3.20;99.90
29777;DHT22;16677;52.224;7.484;2023-01-29T11:35:24;3.10;99.90
29777;DHT22;16677;52.224;7.484;2023-01-29T11:37:51;3.20;99.90
29777;DHT22;16677;52.224;7.484;2023-01-29T11:42:45;3.20;99.90
29777;DHT22;16677;52.224;7.484;2023-01-29T11:47:48;3.10;99.90
29777;DHT22;16677;52.224;7.484;2023-01-29T11:50:19;3.20;99.90
29777;DHT22;16677;52.224;7.484;2023-01-29T11:52:47;3.30;99.90
29777;DHT22;16677;52.224;7.484;2023-01-29T11:57:55;3.30;99.90
29777;DHT22;16677;52.224;7.484;2023-01-29T12:00:25;3.10;99.90
29777;DHT22;16677;52.224;7.484;2023-01-29T12:02:53;3.20;99.90
29777;DHT22;16677;52.224;7.484;2023-01-29T12:05:24;3.30;99.90
29777;DHT22;16677;52.224;7.484;2023-01-29T12:07:52;3.10;99.90
29777;DHT22;16677;52.224;7.484;2023-01-29T12:10:30;3.20;99.90
29777;DHT22;16677;52.224;7.484;2023-01-29T12:15:46;3.40;99.90
29777;DHT22;16677;52.224;7.484;2023-01-29T12:18:30;3.40;99.90
29777;DHT22;16677;52.224;7.484;2023-01-29T12:26:12;3.30;99.90
29777;DHT22;16677;52.224;7.484;2023-01-29T12:31:14;3.20;99.90
29777;DHT22;16677;52.224;7.484;2023-01-29T12:33:50;3.20;99.90
29777;DHT22;16677;52.224;7.484;2023-01-29T12:36:25;3.20;99.90
29777;DHT22;16677;52.224;7.484;2023-01-29T12:38:53;3.30;99.90
29777;DHT22;16677;52.224;7.484;2023-01-29T12:43:55;3.20;99.90
29777;DHT22;16677;52.224;7.484;2023-01-29T12:46:27;3.10;99.90
29777;DHT22;16677;52.224;7.484;2023-01-29T12:48:55;3.20;99.90
29777;DHT22;16677;52.224;7.484;2023-01-29T12:51:26;3.10;99.90
29777;DHT22;16677;52.224;7.484;2023-01-29T12:56:25;3.10;99.90
29777;DHT22;16677;52.224;7.484;2023-01-29T12:58:54;3.00;99.90
29777;DHT22;16677;52.224;7.484;2023-01-29T13:01:32;2.90;99.90
29777;DHT22;16677;52.224;7.484;2023-01-29T13:06:29;3.20;99.90
29777;DHT22;16677;52.224;7.484;2023-01-29T13:08:57;3.20;99.90
29777;DHT22;16677;52.224;7.484;2023-01-29T13:11:30;3.10;99.90
29777;DHT22;16677;52.224;7.484;2023-01-29T13:14:00;3.10;99.90
29777;DHT22;16677;52.224;7.484;2023-01-29T13:16:32;3.10;99.90
29777;DHT22;16677;52.224;7.484;2023-01-29T13:19:02;3.10;99.90
29777;DHT22;16677;52.224;7.484;2023-01-29T13:21:34;3.00;99.90
29777;DHT22;16677;52.224;7.484;2023-01-29T13:24:02;3.10;99.90
29777;DHT22;16677;52.224;7.484;2023-01-29T13:26:30;3.20;99.90
29777;DHT22;16677;52.224;7.484;2023-01-29T13:28:58;3.20;99.90
29777;DHT22;16677;52.224;7.484;2023-01-29T13:33:52;3.00;99.90
29777;DHT22;16677;52.224;7.484;2023-01-29T13:36:23;3.10;99.90
29777;DHT22;16677;52.224;7.484;2023-01-29T13:39:26;3.00;99.90
29777;DHT22;16677;52.224;7.484;2023-01-29T13:41:44;3.00;99.90
29777;DHT22;16677;52.224;7.484;2023-01-29T13:44:24;2.90;99.90
29777;DHT22;16677;52.224;7.484;2023-01-29T13:46:55;3.00;99.90
29777;DHT22;16677;52.224;7.484;2023-01-29T13:49:24;3.00;99.90
29777;DHT22;16677;52.224;7.484;2023-01-29T13:51:53;3.00;99.90
29777;DHT22;16677;52.224;7.484;2023-01-29T13:54:22;3.10;99.90
29777;DHT22;16677;52.224;7.484;2023-01-29T13:59:24;3.00;99.90
29777;DHT22;16677;52.224;7.484;2023-01-29T14:02:23;2.90;99.90
29777;DHT22;16677;52.224;7.484;2023-01-29T14:04:50;2.90;99.90
29777;DHT22;16677;52.224;7.484;2023-01-29T14:10:20;2.80;99.90
29777;DHT22;16677;52.224;7.484;2023-01-29T14:12:53;2.70;99.90
29777;DHT22;16677;52.224;7.484;2023-01-29T14:15:27;2.80;99.90
29777;DHT22;16677;52.224;7.484;2023-01-29T14:23:20;2.80;99.90
29777;DHT22;16677;52.224;7.484;2023-01-29T14:25:48;2.80;99.90
29777;DHT22;16677;52.224;7.484;2023-01-29T14:28:17;2.90;99.90
29777;DHT22;16677;52.224;7.484;2023-01-29T14:30:45;3.00;99.90
29777;DHT22;16677;52.224;7.484;2023-01-29T14:35:49;2.80;99.90
29777;DHT22;16677;52.224;7.484;2023-01-29T14:38:16;2.90;99.90
29777;DHT22;16677;52.224;7.484;2023-01-29T14:40:44;2.90;99.90
29777;DHT22;16677;52.224;7.484;2023-01-29T14:43:18;2.70;99.90
29777;DHT22;16677;52.224;7.484;2023-01-29T14:45:47;2.70;99.90
29777;DHT22;16677;52.224;7.484;2023-01-29T14:51:10;2.70;99.90
29777;DHT22;16677;52.224;7.484;2023-01-29T14:53:47;2.70;99.90
29777;DHT22;16677;52.224;7.484;2023-01-29T14:56:26;2.70;99.90
29777;DHT22;16677;52.224;7.484;2023-01-29T14:59:01;2.80;99.90
29777;DHT22;16677;52.224;7.484;2023-01-29T15:01:34;2.70;99.90
29777;DHT22;16677;52.224;7.484;2023-01-29T15:04:06;2.70;99.90
29777;DHT22;16677;52.224;7.484;2023-01-29T15:06:43;2.70;99.90
29777;DHT22;16677;52.224;7.484;2023-01-29T15:09:16;2.70;99.90
29777;DHT22;16677;52.224;7.484;2023-01-29T15:11:48;2.70;99.90
29777;DHT22;16677;52.224;7.484;2023-01-29T15:14:21;2.70;99.90
29777;DHT22;16677;52.224;7.484;2023-01-29T15:19:41;2.60;99.90
29777;DHT22;16677;52.224;7.484;2023-01-29T15:22:12;2.70;99.90
29777;DHT22;16677;52.224;7.484;2023-01-29T15:24:40;2.70;99.90
29777;DHT22;16677;52.224;7.484;2023-01-29T15:27:14;2.70;99.90
29777;DHT22;16677;52.224;7.484;2023-01-29T15:29:42;2.70;99.90
29777;DHT22;16677;52.224;7.484;2023-01-29T15:32:12;2.70;99.90
29777;DHT22;16677;52.224;7.484;2023-01-29T15:34:43;2.60;99.90
29777;DHT22;16677;52.224;7.484;2023-01-29T15:37:30;2.60;99.90
29777;DHT22;16677;52.224;7.484;2023-01-29T15:39:57;2.60;99.90
29777;DHT22;16677;52.224;7.484;2023-01-29T15:42:25;2.70;99.90
29777;DHT22;16677;52.224;7.484;2023-01-29T15:44:52;2.60;99.90
29777;DHT22;16677;52.224;7.484;2023-01-29T15:47:22;2.60;99.90
29777;DHT22;16677;52.224;7.484;2023-01-29T15:49:51;2.70;99.90
29777;DHT22;16677;52.224;7.484;2023-01-29T15:52:19;2.70;99.90
29777;DHT22;16677;52.224;7.484;2023-01-29T15:54:47;2.70;99.90
29777;DHT22;16677;52.224;7.484;2023-01-29T15:57:18;2.60;99.90
29777;DHT22;16677;52.224;7.484;2023-01-29T15:59:45;2.60;99.90
29777;DHT22;16677;52.224;7.484;2023-01-29T16:02:37;2.70;99.90
29777;DHT22;16677;52.224;7.484;2023-01-29T16:05:11;2.60;99.90
29777;DHT22;16677;52.224;7.484;2023-01-29T16:07:39;2.70;99.90
29777;DHT22;16677;52.224;7.484;2023-01-29T16:10:10;2.60;99.90
29777;DHT22;16677;52.224;7.484;2023-01-29T16:12:40;2.70;99.90
29777;DHT22;16677;52.224;7.484;2023-01-29T16:15:11;2.60;99.90
29777;DHT22;16677;52.224;7.484;2023-01-29T16:17:41;2.60;99.90
29777;DHT22;16677;52.224;7.484;2023-01-29T16:20:28;2.60;99.90
29777;DHT22;16677;52.224;7.484;2023-01-29T16:22:56;2.50;99.90
29777;DHT22;16677;52.224;7.484;2023-01-29T16:25:23;2.60;99.90
29777;DHT22;16677;52.224;7.484;2023-01-29T16:27:50;2.50;99.90
29777;DHT22;16677;52.224;7.484;2023-01-29T16:30:17;2.50;99.90
29777;DHT22;16677;52.224;7.484;2023-01-29T16:32:44;2.60;99.90
29777;DHT22;16677;52.224;7.484;2023-01-29T16:35:14;2.50;99.90
29777;DHT22;16677;52.224;7.484;2023-01-29T16:37:46;2.40;99.90
29777;DHT22;16677;52.224;7.484;2023-01-29T16:40:14;2.40;99.90
29777;DHT22;16677;52.224;7.484;2023-01-29T16:42:42;2.40;99.90
29777;DHT22;16677;52.224;7.484;2023-01-29T16:45:26;2.40;1.00
29777;DHT22;16677;52.224;7.484;2023-01-29T16:48:00;2.40;1.00
29777;DHT22;16677;52.224;7.484;2023-01-29T16:50:31;2.40;1.00
29777;DHT22;16677;52.224;7.484;2023-01-29T16:53:14;2.40;1.00
29777;DHT22;16677;52.224;7.484;2023-01-29T16:55:43;2.60;1.00
29777;DHT22;16677;52.224;7.484;2023-01-29T16:58:16;2.40;1.00
29777;DHT22;16677;52.224;7.484;2023-01-29T17:00:49;2.30;1.00
29777;DHT22;16677;52.224;7.484;2023-01-29T17:03:17;2.30;1.00
29777;DHT22;16677;52.224;7.484;2023-01-29T17:05:44;2.40;1.00
29777;DHT22;16677;52.224;7.484;2023-01-29T17:08:21;2.30;60.00
29777;DHT22;16677;52.224;7.484;2023-01-29T17:10:59;2.30;99.90
29777;DHT22;16677;52.224;7.484;2023-01-29T17:13:34;2.30;95.10
29777;DHT22;16677;52.224;7.484;2023-01-29T17:18:41;2.40;1.00
29777;DHT22;16677;52.224;7.484;2023-01-29T17:21:08;2.40;1.00
29777;DHT22;16677;52.224;7.484;2023-01-29T17:23:34;2.50;1.00
29777;DHT22;16677;52.224;7.484;2023-01-29T17:26:01;2.40;1.00
29777;DHT22;16677;52.224;7.484;2023-01-29T17:28:42;2.60;1.00
29777;DHT22;16677;52.224;7.484;2023-01-29T17:31:13;2.50;1.00
29777;DHT22;16677;52.224;7.484;2023-01-29T17:33:41;2.50;1.00
29777;DHT22;16677;52.224;7.484;2023-01-29T17:36:13;2.60;1.00
29777;DHT22;16677;52.224;7.484;2023-01-29T17:38:40;2.60;1.00
29777;DHT22;16677;52.224;7.484;2023-01-29T17:41:23;2.60;1.00
29777;DHT22;16677;52.224;7.484;2023-01-29T17:43:51;2.60;1.00
29777;DHT22;16677;52.224;7.484;2023-01-29T17:46:18;2.60;1.00
29777;DHT22;16677;52.224;7.484;2023-01-29T17:48:45;2.60;1.00
29777;DHT22;16677;52.224;7.484;2023-01-29T17:51:12;2.60;1.00
29777;DHT22;16677;52.224;7.484;2023-01-29T17:53:42;2.70;1.00
29777;DHT22;16677;52.224;7.484;2023-01-29T17:56:13;2.70;1.00
29777;DHT22;16677;52.224;7.484;2023-01-29T17:58:40;2.70;1.00
29777;DHT22;16677;52.224;7.484;2023-01-29T18:01:06;2.90;1.00
29777;DHT22;16677;52.224;7.484;2023-01-29T18:03:33;2.70;99.90
29777;DHT22;16677;52.224;7.484;2023-01-29T18:06:00;2.60;99.90
29777;DHT22;16677;52.224;7.484;2023-01-29T18:08:28;2.70;99.90
29777;DHT22;16677;52.224;7.484;2023-01-29T18:10:56;2.70;99.90
29777;DHT22;16677;52.224;7.484;2023-01-29T18:13:23;2.80;99.90
29777;DHT22;16677;52.224;7.484;2023-01-29T18:15:50;2.80;99.90
29777;DHT22;16677;52.224;7.484;2023-01-29T18:18:18;2.80;99.90
29777;DHT22;16677;52.224;7.484;2023-01-29T18:20:45;3.00;99.90
29777;DHT22;16677;52.224;7.484;2023-01-29T18:23:12;2.80;99.90
29777;DHT22;16677;52.224;7.484;2023-01-29T18:25:39;2.80;99.90